Time;durP1;ratioP1;P1;durP2;ratioP2;P2;SDS_P1;SDS_P2;PMS_P1;PMS_P2;Temp;Humidity;BMP_temperature;BMP_pressure;BME280_temperature;BME280_humidity;BME280_pressure;Samples;Min_cycle;Max_cycle;Signal;HPM_P1;HPM_P2
2023/07/11 00:00:56;;;;;;;36.50;33.67;;;19.00;99.90;;;;;;5051121;28;20110;-57
2023/07/11 00:03:22;;;;;;;37.47;34.08;;;18.90;99.90;;;;;;5050258;28;20052;-57
2023/07/11 00:06:02;;;;;;;36.10;33.20;;;18.90;99.90;;;;;;5050093;28;20086;-57
2023/07/11 00:08:27;;;;;;;36.63;33.53;;;19.00;99.90;;;;;;5050800;28;20041;-57
2023/07/11 00:10:54;;;;;;;35.97;32.88;;;18.90;99.90;;;;;;5028058;28;20141;-57
2023/07/11 00:13:19;;;;;;;37.83;34.50;;;18.90;99.90;;;;;;5010694;28;20052;-57
2023/07/11 00:15:55;;;;;;;36.17;33.10;;;18.90;99.90;;;;;;5010847;28;20128;-57
2023/07/11 00:18:20;;;;;;;36.13;33.25;;;19.00;99.90;;;;;;5010753;28;20046;-57
2023/07/11 00:20:46;;;;;;;33.10;30.20;;;19.00;99.90;;;;;;5048587;28;20384;-57
2023/07/11 00:23:11;;;;;;;32.05;29.45;;;19.00;99.90;;;;;;5050099;28;20037;-57
2023/07/11 00:25:37;;;;;;;32.72;30.13;;;19.00;99.90;;;;;;5050141;28;20052;-57
2023/07/11 00:28:03;;;;;;;30.70;28.27;;;19.20;99.90;;;;;;5065581;28;20047;-57
2023/07/11 00:30:28;;;;;;;33.60;30.50;;;19.20;99.90;;;;;;5050284;28;20037;-57
2023/07/11 00:32:54;;;;;;;33.83;31.13;;;19.30;99.10;;;;;;5050000;28;20051;-57
2023/07/11 00:35:20;;;;;;;35.60;32.78;;;19.30;62.70;;;;;;5029006;28;20128;-57
2023/07/11 00:37:45;;;;;;;36.67;33.67;;;19.30;47.40;;;;;;5010008;28;20517;-57
2023/07/11 00:40:11;;;;;;;32.80;30.05;;;19.30;36.00;;;;;;5010527;28;20120;-57
2023/07/11 00:42:37;;;;;;;32.08;29.50;;;19.20;23.10;;;;;;5010284;28;20048;-57
2023/07/11 00:45:03;;;;;;;32.40;29.80;;;19.30;1.00;;;;;;5010396;28;20407;-57
2023/07/11 00:47:30;;;;;;;33.20;30.30;;;19.40;1.00;;;;;;5010198;28;20113;-57
2023/07/11 00:50:01;;;;;;;32.88;30.08;;;19.40;1.00;;;;;;5033169;28;20376;-57
2023/07/11 00:52:28;;;;;;;31.65;29.15;;;19.50;1.00;;;;;;5050036;28;20045;-57
2023/07/11 00:54:58;;;;;;;34.72;32.03;;;19.60;1.00;;;;;;5049972;28;20064;-57
2023/07/11 00:57:25;;;;;;;32.65;30.05;;;19.60;1.00;;;;;;5048888;28;20124;-57
2023/07/11 00:59:52;;;;;;;33.58;30.60;;;19.90;1.00;;;;;;5049483;28;20041;-57
2023/07/11 01:02:25;;;;;;;33.00;30.27;;;19.60;1.00;;;;;;5049658;28;20072;-57
2023/07/11 01:04:50;;;;;;;33.35;30.52;;;19.60;1.00;;;;;;5049454;28;20406;-57
2023/07/11 01:07:25;;;;;;;35.95;33.15;;;19.50;1.00;;;;;;5048608;28;20045;-57
2023/07/11 01:09:51;;;;;;;36.17;33.17;;;19.50;99.90;;;;;;5044182;28;20070;-57
2023/07/11 01:12:17;;;;;;;37.65;34.60;;;19.50;99.90;;;;;;5010048;28;20077;-57
2023/07/11 01:14:46;;;;;;;38.40;35.20;;;19.40;99.90;;;;;;5010079;28;20046;-57
2023/07/11 01:17:30;;;;;;;41.85;38.25;;;19.30;99.90;;;;;;5036694;28;20567;-57
2023/07/11 01:19:59;;;;;;;39.92;36.80;;;19.30;99.90;;;;;;5049646;28;20086;-57
2023/07/11 01:22:26;;;;;;;39.63;36.47;;;19.20;1.00;;;;;;5049508;28;20568;-57
2023/07/11 01:24:53;;;;;;;35.15;32.35;;;19.20;1.00;;;;;;5047797;28;20036;-57
2023/07/11 01:27:19;;;;;;;37.00;33.85;;;19.10;99.90;;;;;;5049476;28;20051;-57
2023/07/11 01:29:49;;;;;;;36.60;33.50;;;19.20;99.90;;;;;;5049929;28;20488;-57
2023/07/11 01:32:16;;;;;;;36.83;33.83;;;19.30;99.90;;;;;;5049726;28;20112;-57
2023/07/11 01:34:42;;;;;;;37.22;34.25;;;19.30;99.90;;;;;;5039627;28;20026;-57
2023/07/11 01:37:08;;;;;;;41.42;38.17;;;19.20;99.90;;;;;;5039351;28;20629;-57
2023/07/11 01:39:34;;;;;;;39.67;36.17;;;19.20;99.90;;;;;;5048194;28;20055;-57
2023/07/11 01:41:59;;;;;;;39.10;35.83;;;19.10;99.90;;;;;;5049332;28;20045;-57
2023/07/11 01:44:25;;;;;;;42.30;38.70;;;19.10;99.90;;;;;;5049295;28;20064;-57
2023/07/11 01:46:50;;;;;;;42.95;39.38;;;19.00;99.90;;;;;;5049485;28;20053;-57
2023/07/11 01:49:16;;;;;;;44.25;40.60;;;19.00;99.90;;;;;;5047840;28;20125;-57
2023/07/11 01:51:45;;;;;;;44.67;40.67;;;18.90;1.00;;;;;;5052641;28;20043;-57
2023/07/11 01:54:11;;;;;;;42.13;38.55;;;18.80;1.00;;;;;;5053020;28;20060;-58
2023/07/11 01:56:37;;;;;;;38.83;35.60;;;18.80;1.00;;;;;;5052931;28;20048;-57
2023/07/11 01:59:03;;;;;;;41.45;37.88;;;18.70;1.00;;;;;;5053077;28;20055;-57
2023/07/11 02:01:29;;;;;;;40.15;36.75;;;18.80;1.00;;;;;;5053119;28;20040;-57
2023/07/11 02:03:54;;;;;;;41.72;38.22;;;18.80;1.00;;;;;;5046652;28;20042;-57
2023/07/11 02:06:20;;;;;;;42.90;39.30;;;18.70;1.00;;;;;;5013185;28;20396;-57
2023/07/11 02:08:46;;;;;;;42.50;38.78;;;18.70;1.00;;;;;;5013058;28;20466;-57
2023/07/11 02:11:12;;;;;;;41.85;38.40;;;18.70;1.00;;;;;;5012830;28;20144;-57
2023/07/11 02:13:40;;;;;;;40.28;36.97;;;18.70;1.00;;;;;;5031427;28;20136;-57
2023/07/11 02:16:06;;;;;;;40.67;37.20;;;18.70;1.00;;;;;;5052999;28;20115;-57
2023/07/11 02:18:31;;;;;;;38.90;35.70;;;18.70;1.00;;;;;;5052730;28;20049;-57
2023/07/11 02:20:57;;;;;;;37.70;34.63;;;18.80;1.00;;;;;;5052476;28;20041;-57
2023/07/11 02:23:24;;;;;;;38.85;35.45;;;18.90;1.00;;;;;;5052066;28;20507;-57
2023/07/11 02:25:53;;;;;;;39.17;35.70;;;19.00;1.00;;;;;;5052476;28;20072;-57
2023/07/11 02:28:22;;;;;;;38.88;35.78;;;19.00;1.00;;;;;;5052665;28;20112;-57
2023/07/11 02:30:47;;;;;;;38.45;35.33;;;19.00;1.00;;;;;;5052618;28;20131;-57
2023/07/11 02:33:13;;;;;;;37.85;34.65;;;19.40;1.00;;;;;;5052691;28;20551;-57
2023/07/11 02:35:39;;;;;;;39.00;35.80;;;19.10;1.00;;;;;;5026977;28;20519;-57
2023/07/11 02:38:04;;;;;;;38.05;34.78;;;19.10;1.00;;;;;;5037461;28;20060;-57
2023/07/11 02:40:30;;;;;;;38.95;35.70;;;19.00;1.00;;;;;;5052162;28;20041;-57
2023/07/11 02:42:56;;;;;;;39.17;35.92;;;19.10;1.00;;;;;;5052055;28;20056;-57
2023/07/11 02:45:21;;;;;;;40.55;36.97;;;19.10;1.00;;;;;;5052203;28;20037;-57
2023/07/11 02:47:47;;;;;;;41.35;37.95;;;19.00;1.00;;;;;;5052109;28;20318;-56
2023/07/11 02:50:12;;;;;;;42.38;38.85;;;19.00;1.00;;;;;;5050813;28;20087;-57
2023/07/11 02:52:38;;;;;;;42.90;39.38;;;19.10;1.00;;;;;;5033084;28;20551;-57
2023/07/11 02:55:05;;;;;;;39.63;36.35;;;18.90;1.00;;;;;;5026501;28;20419;-57
2023/07/11 02:57:31;;;;;;;40.22;36.83;;;19.00;1.00;;;;;;5031747;28;20565;-57
2023/07/11 02:59:56;;;;;;;39.05;35.75;;;18.90;1.00;;;;;;5032333;28;20045;-57
2023/07/11 03:02:22;;;;;;;38.30;35.10;;;18.90;1.00;;;;;;5031708;28;20037;-57
2023/07/11 03:04:48;;;;;;;37.75;34.75;;;19.00;1.00;;;;;;5032099;28;20088;-57
2023/07/11 03:07:13;;;;;;;40.22;36.83;;;19.00;1.00;;;;;;5031861;28;20037;-57
2023/07/11 03:09:41;;;;;;;37.42;34.17;;;19.00;1.00;;;;;;5032247;28;20075;-57
2023/07/11 03:12:07;;;;;;;39.00;35.58;;;19.00;1.00;;;;;;5051196;28;20041;-57
2023/07/11 03:14:33;;;;;;;39.05;35.92;;;19.00;1.00;;;;;;5051626;28;20041;-57
2023/07/11 03:16:58;;;;;;;38.38;35.15;;;19.00;1.00;;;;;;5051658;28;20047;-58
2023/07/11 03:19:24;;;;;;;38.92;35.85;;;19.10;1.00;;;;;;5051394;28;20352;-57
2023/07/11 03:21:49;;;;;;;39.80;36.50;;;19.10;1.00;;;;;;5051385;28;20044;-57
2023/07/11 03:24:15;;;;;;;39.40;36.20;;;19.10;1.00;;;;;;5051124;28;20037;-57
2023/07/11 03:26:41;;;;;;;40.75;37.45;;;19.10;1.00;;;;;;5050707;28;20087;-57
2023/07/11 03:29:07;;;;;;;41.03;37.55;;;19.10;1.00;;;;;;5051384;28;20453;-57
2023/07/11 03:31:33;;;;;;;42.08;38.58;;;19.10;1.00;;;;;;5050708;28;20037;-57
2023/07/11 03:33:58;;;;;;;42.50;38.80;;;19.10;1.00;;;;;;5050398;28;20043;-57
2023/07/11 03:36:24;;;;;;;43.97;39.83;;;19.10;1.00;;;;;;5013509;28;20048;-57
2023/07/11 03:38:49;;;;;;;42.13;38.63;;;19.00;1.00;;;;;;5011262;28;20412;-57
2023/07/11 03:41:15;;;;;;;43.67;39.53;;;19.10;1.00;;;;;;5014743;28;20460;-57
2023/07/11 03:43:40;;;;;;;44.17;39.50;;;19.00;1.00;;;;;;5050676;28;20509;-58
2023/07/11 03:46:06;;;;;;;42.90;38.90;;;19.00;1.00;;;;;;5050863;28;20052;-57
2023/07/11 03:48:31;;;;;;;43.53;39.28;;;19.00;19.10;;;;;;5050820;28;20075;-57
2023/07/11 03:50:57;;;;;;;43.80;39.33;;;19.00;51.50;;;;;;5050863;28;20051;-57
2023/07/11 03:53:23;;;;;;;42.53;38.67;;;19.00;92.40;;;;;;5050748;28;20037;-57
2023/07/11 03:55:49;;;;;;;42.45;38.45;;;18.90;99.90;;;;;;5065838;28;20055;-57
2023/07/11 03:58:15;;;;;;;41.78;37.83;;;18.90;99.90;;;;;;5009749;28;20050;-57
2023/07/11 04:00:41;;;;;;;41.78;37.83;;;18.90;99.90;;;;;;5043067;28;20057;-56
2023/07/11 04:03:06;;;;;;;40.47;36.55;;;18.90;99.90;;;;;;5010779;28;20044;-57
2023/07/11 04:05:32;;;;;;;40.63;36.92;;;18.90;99.90;;;;;;5010920;28;20038;-57
2023/07/11 04:07:57;;;;;;;41.35;37.33;;;18.80;99.90;;;;;;5010963;28;20041;-57
2023/07/11 04:10:23;;;;;;;41.55;37.70;;;18.80;99.90;;;;;;5017882;28;20045;-57
2023/07/11 04:12:50;;;;;;;41.58;37.78;;;18.70;99.90;;;;;;5048446;28;20499;-57
2023/07/11 04:15:16;;;;;;;41.08;37.38;;;18.80;99.90;;;;;;5050790;28;20041;-57
2023/07/11 04:17:41;;;;;;;40.47;36.70;;;18.80;99.90;;;;;;5050602;28;20049;-57
2023/07/11 04:20:08;;;;;;;39.63;36.03;;;18.70;99.90;;;;;;5050317;28;20037;-57
2023/07/11 04:22:34;;;;;;;39.63;36.00;;;18.80;1.00;;;;;;5070120;28;20049;-56
2023/07/11 04:24:59;;;;;;;39.55;35.75;;;18.70;1.00;;;;;;5049678;28;20074;-57
2023/07/11 04:27:26;;;;;;;38.33;34.72;;;18.70;1.00;;;;;;5049383;28;20037;-57
2023/07/11 04:29:51;;;;;;;38.95;35.28;;;18.70;1.00;;;;;;5049018;28;20040;-57
2023/07/11 04:32:17;;;;;;;38.78;34.97;;;18.70;1.00;;;;;;5049831;28;20114;-56
2023/07/11 04:34:43;;;;;;;37.47;33.90;;;18.80;13.30;;;;;;5040035;28;20038;-57
2023/07/11 04:37:08;;;;;;;34.95;31.63;;;18.70;50.10;;;;;;5046151;28;20052;-57
2023/07/11 04:39:34;;;;;;;34.95;31.80;;;18.80;92.70;;;;;;5049576;28;20064;-56
2023/07/11 04:41:59;;;;;;;36.00;32.55;;;18.80;99.90;;;;;;5038257;28;20099;-57
2023/07/11 04:44:26;;;;;;;35.95;32.33;;;18.80;99.90;;;;;;5047089;28;20052;-57
2023/07/11 04:46:52;;;;;;;35.55;32.15;;;18.80;99.90;;;;;;5032231;28;20513;-56
2023/07/11 04:49:18;;;;;;;36.40;32.97;;;18.30;99.90;;;;;;5031350;28;20128;-56
2023/07/11 04:51:43;;;;;;;32.13;29.20;;;18.90;99.90;;;;;;5068163;28;20494;-57
2023/07/11 04:54:09;;;;;;;34.17;31.13;;;18.90;99.90;;;;;;5032868;28;20049;-56
2023/07/11 04:56:39;;;;;;;35.78;32.38;;;19.00;99.90;;;;;;5042419;28;20056;-56
2023/07/11 04:59:04;;;;;;;34.67;31.27;;;19.00;99.90;;;;;;5033430;28;20048;-56
2023/07/11 05:01:30;;;;;;;33.30;30.40;;;19.00;99.90;;;;;;5018937;28;20483;-57
2023/07/11 05:03:56;;;;;;;34.00;30.85;;;19.10;99.90;;;;;;5029812;28;20103;-57
2023/07/11 05:06:22;;;;;;;35.05;31.45;;;19.20;99.90;;;;;;5043300;28;20463;-57
2023/07/11 05:08:48;;;;;;;33.28;30.48;;;19.30;99.90;;;;;;5048933;28;20048;-57
2023/07/11 05:11:15;;;;;;;33.72;30.45;;;19.20;99.90;;;;;;5047169;28;20036;-57
2023/07/11 05:13:42;;;;;;;32.78;29.75;;;19.30;99.90;;;;;;5049568;28;20116;-57
2023/07/11 05:16:11;;;;;;;35.70;32.55;;;19.30;99.90;;;;;;5049121;28;20511;-56
2023/07/11 05:18:40;;;;;;;36.08;32.42;;;19.40;99.90;;;;;;5049449;28;20072;-57
2023/07/11 05:21:08;;;;;;;35.97;32.50;;;19.30;99.90;;;;;;5049236;28;20033;-56
2023/07/11 05:23:34;;;;;;;36.40;33.10;;;19.40;99.90;;;;;;5048375;28;20037;-57
2023/07/11 05:26:00;;;;;;;35.45;32.15;;;19.40;99.90;;;;;;5053815;28;20094;-57
2023/07/11 05:28:26;;;;;;;34.92;31.70;;;19.60;99.90;;;;;;5053369;28;20079;-57
2023/07/11 05:30:53;;;;;;;35.10;31.80;;;19.60;1.00;;;;;;5010597;28;20104;-60
2023/07/11 05:33:19;;;;;;;37.10;33.45;;;19.60;1.00;;;;;;5032195;28;20048;-60
2023/07/11 05:35:57;;;;;;;35.75;32.45;;;19.70;1.00;;;;;;5007541;28;20431;-60
2023/07/11 05:38:24;;;;;;;34.90;31.67;;;19.80;1.00;;;;;;5010269;28;20065;-60
2023/07/11 05:40:50;;;;;;;36.13;32.65;;;19.80;1.00;;;;;;5018188;28;20041;-60
2023/07/11 05:43:15;;;;;;;35.75;32.55;;;19.90;1.00;;;;;;5014794;28;20054;-60
2023/07/11 05:45:44;;;;;;;37.55;34.15;;;20.00;1.00;;;;;;5015268;28;20084;-60
2023/07/11 05:48:10;;;;;;;38.17;34.45;;;20.20;13.10;;;;;;5012357;28;20128;-60
2023/07/11 05:50:35;;;;;;;36.90;33.22;;;20.20;41.10;;;;;;5008731;28;20600;-60
2023/07/11 05:53:01;;;;;;;37.58;34.10;;;20.20;94.30;;;;;;5013610;28;20038;-60
2023/07/11 05:55:27;;;;;;;36.95;33.80;;;20.30;99.90;;;;;;5014790;28;20040;-60
2023/07/11 05:57:52;;;;;;;38.17;34.70;;;20.30;99.90;;;;;;5016557;28;20038;-60
2023/07/11 06:00:18;;;;;;;36.70;33.10;;;20.40;99.90;;;;;;5019595;28;20046;-60
2023/07/11 06:02:44;;;;;;;36.83;33.17;;;20.50;99.90;;;;;;5011802;28;20041;-60
2023/07/11 06:05:10;;;;;;;33.95;30.88;;;20.70;99.90;;;;;;5013691;28;20037;-60
2023/07/11 06:07:35;;;;;;;35.65;32.40;;;20.80;99.90;;;;;;5012289;28;20108;-60
2023/07/11 06:10:01;;;;;;;33.65;30.33;;;20.80;99.90;;;;;;5009526;28;20053;-60
2023/07/11 06:12:27;;;;;;;33.65;30.65;;;21.20;99.90;;;;;;5013757;28;20113;-61
2023/07/11 06:14:52;;;;;;;33.13;29.73;;;21.30;99.90;;;;;;5013447;28;20062;-61
2023/07/11 06:17:18;;;;;;;30.98;28.17;;;21.30;99.90;;;;;;5011178;28;20117;-60
2023/07/11 06:19:44;;;;;;;33.80;28.10;;;21.40;52.50;;;;;;5011828;28;20107;-60
2023/07/11 06:22:10;;;;;;;30.83;27.75;;;21.40;1.00;;;;;;5012442;28;20048;-60
2023/07/11 06:24:37;;;;;;;29.75;26.95;;;21.60;99.90;;;;;;5005432;28;20046;-60
2023/07/11 06:27:03;;;;;;;27.40;24.77;;;21.60;99.90;;;;;;5042336;28;20408;-60
2023/07/11 06:29:29;;;;;;;29.17;26.48;;;21.80;99.90;;;;;;5012383;28;20036;-58
2023/07/11 06:31:55;;;;;;;29.33;26.60;;;21.90;94.70;;;;;;5013600;28;20117;-58
2023/07/11 06:34:20;;;;;;;26.40;24.00;;;22.00;1.00;;;;;;5008246;28;20180;-59
2023/07/11 06:36:46;;;;;;;27.98;25.40;;;22.00;1.00;;;;;;5027654;28;20041;-60
2023/07/11 06:39:12;;;;;;;27.48;24.92;;;21.90;99.90;;;;;;5011289;28;20041;-60
2023/07/11 06:41:38;;;;;;;29.95;27.13;;;21.90;99.90;;;;;;5008301;28;20447;-60
2023/07/11 06:44:06;;;;;;;27.83;25.27;;;22.00;99.90;;;;;;5005904;28;20046;-60
2023/07/11 06:46:34;;;;;;;27.52;24.75;;;22.10;99.90;;;;;;5006446;28;20038;-60
2023/07/11 06:48:59;;;;;;;28.02;25.50;;;22.10;99.90;;;;;;5002109;28;20081;-61
2023/07/11 06:51:25;;;;;;;27.60;24.98;;;22.20;99.90;;;;;;5003603;28;20107;-60
2023/07/11 06:53:51;;;;;;;32.22;29.00;;;22.30;99.90;;;;;;5006339;28;20484;-60
2023/07/11 06:56:16;;;;;;;28.90;26.40;;;22.50;99.90;;;;;;5012863;28;20719;-60
2023/07/11 06:58:42;;;;;;;31.20;28.15;;;22.60;99.90;;;;;;5007797;28;20087;-60
2023/07/11 07:01:09;;;;;;;30.83;27.88;;;22.70;99.90;;;;;;5006591;28;20038;-60
2023/07/11 07:03:35;;;;;;;29.55;26.92;;;22.70;99.90;;;;;;5008359;28;20042;-60
2023/07/11 07:06:08;;;;;;;31.08;28.33;;;22.70;99.90;;;;;;5013600;28;20509;-60
2023/07/11 07:08:33;;;;;;;29.45;26.83;;;22.70;99.90;;;;;;5012680;28;20784;-60
2023/07/11 07:10:59;;;;;;;31.30;28.30;;;22.70;99.90;;;;;;5007822;28;20034;-60
2023/07/11 07:13:25;;;;;;;29.92;26.92;;;22.80;99.90;;;;;;5008932;28;20029;-60
2023/07/11 07:15:54;;;;;;;28.35;25.73;;;22.70;99.90;;;;;;5010457;28;20045;-60
2023/07/11 07:18:21;;;;;;;28.58;25.85;;;22.80;99.90;;;;;;5005272;28;20049;-60
2023/07/11 07:20:48;;;;;;;27.20;24.58;;;22.80;99.90;;;;;;5019187;28;20267;-60
2023/07/11 07:23:14;;;;;;;29.40;26.67;;;22.90;91.30;;;;;;5017429;28;20396;-60
2023/07/11 07:25:41;;;;;;;30.10;27.00;;;23.00;99.90;;;;;;5008233;28;20105;-60
2023/07/11 07:28:07;;;;;;;31.10;28.17;;;23.20;99.90;;;;;;5004109;28;20743;-60
2023/07/11 07:30:34;;;;;;;30.95;27.95;;;23.20;99.90;;;;;;5001550;28;20047;-61
2023/07/11 07:33:00;;;;;;;28.08;25.52;;;23.30;99.90;;;;;;5009749;28;20140;-60
2023/07/11 07:35:26;;;;;;;28.65;25.95;;;23.50;99.90;;;;;;5008699;28;20042;-60
2023/07/11 07:37:51;;;;;;;29.25;26.33;;;23.60;99.90;;;;;;5005454;28;20061;-60
2023/07/11 07:40:17;;;;;;;27.73;25.15;;;24.30;99.90;;;;;;5010125;28;20053;-60
2023/07/11 07:42:43;;;;;;;25.67;23.08;;;23.70;99.90;;;;;;5008536;28;20042;-60
2023/07/11 07:45:08;;;;;;;25.15;22.13;;;23.90;51.80;;;;;;5014429;28;20057;-60
2023/07/11 07:47:35;;;;;;;27.70;24.77;;;23.80;1.00;;;;;;5008444;28;20476;-60
2023/07/11 07:50:02;;;;;;;28.33;25.92;;;23.80;1.00;;;;;;5007813;28;20045;-60
2023/07/11 07:52:28;;;;;;;30.08;27.17;;;23.90;1.00;;;;;;5002879;28;20125;-60
2023/07/11 07:54:53;;;;;;;28.50;25.92;;;23.90;1.00;;;;;;5005817;28;20129;-60
2023/07/11 07:57:19;;;;;;;27.13;24.63;;;23.80;1.00;;;;;;5005571;28;20029;-60
2023/07/11 07:59:44;;;;;;;26.98;24.17;;;23.80;1.00;;;;;;5027294;28;20476;-60
2023/07/11 08:02:10;;;;;;;26.67;24.15;;;23.80;1.00;;;;;;5008662;28;20038;-60
2023/07/11 08:04:36;;;;;;;28.23;25.65;;;23.80;1.00;;;;;;5007753;28;20766;-60
2023/07/11 08:07:01;;;;;;;27.17;24.45;;;23.90;1.00;;;;;;5004422;28;20132;-60
2023/07/11 08:09:29;;;;;;;30.05;24.20;;;24.00;1.00;;;;;;5001575;28;20144;-60
2023/07/11 08:11:55;;;;;;;27.58;24.98;;;24.20;1.00;;;;;;5009813;28;20096;-60
2023/07/11 08:14:20;;;;;;;26.27;23.67;;;24.30;1.00;;;;;;5006094;28;20755;-61
2023/07/11 08:16:46;;;;;;;24.95;22.77;;;24.40;1.00;;;;;;5006028;28;20038;-60
2023/07/11 08:19:12;;;;;;;25.08;22.65;;;24.40;1.00;;;;;;5015476;28;20041;-60
2023/07/11 08:21:37;;;;;;;23.48;20.80;;;24.50;1.00;;;;;;5002670;28;20038;-60
2023/07/11 08:24:05;;;;;;;25.50;20.58;;;24.60;99.90;;;;;;5006809;28;20060;-59
2023/07/11 08:26:30;;;;;;;21.67;19.17;;;24.60;99.90;;;;;;4998398;28;20046;-58
2023/07/11 08:28:56;;;;;;;20.45;18.40;;;24.90;99.90;;;;;;5013358;28;20492;-58
2023/07/11 08:31:22;;;;;;;21.63;19.45;;;24.70;99.90;;;;;;4999849;28;20509;-58
2023/07/11 08:33:48;;;;;;;19.55;17.50;;;25.00;99.90;;;;;;5006538;28;20290;-58
2023/07/11 08:36:13;;;;;;;18.25;16.45;;;25.20;99.90;;;;;;5004966;28;20049;-58
2023/07/11 08:38:39;;;;;;;19.25;17.55;;;25.10;99.90;;;;;;5010624;28;20029;-58
2023/07/11 08:41:15;;;;;;;16.02;14.32;;;25.20;99.90;;;;;;5011090;28;20535;-58
2023/07/11 08:43:42;;;;;;;18.33;15.07;;;25.30;99.90;;;;;;5006707;28;20419;-58
2023/07/11 08:46:13;;;;;;;17.42;15.77;;;25.30;99.90;;;;;;5001257;28;20101;-58
2023/07/11 08:48:45;;;;;;;18.70;14.20;;;25.30;99.90;;;;;;5002007;28;20054;-58
2023/07/11 08:51:34;;;;;;;17.23;14.10;;;25.40;99.90;;;;;;5002493;28;20050;-58
2023/07/11 08:54:28;;;;;;;16.60;14.90;;;25.60;99.90;;;;;;5007026;28;20057;-58
2023/07/11 08:56:56;;;;;;;17.33;15.60;;;25.80;99.90;;;;;;5007602;28;20057;-58
2023/07/11 08:59:28;;;;;;;13.98;11.02;;;26.30;99.90;;;;;;5008370;28;20103;-58
2023/07/11 09:02:08;;;;;;;14.80;10.43;;;26.60;99.90;;;;;;5008502;28;20049;-59
2023/07/11 09:04:44;;;;;;;14.98;12.38;;;26.80;99.90;;;;;;5000521;28;20046;-58
2023/07/11 09:07:23;;;;;;;17.50;10.52;;;26.80;99.90;;;;;;5006977;28;20109;-58
2023/07/11 09:09:49;;;;;;;16.40;14.30;;;26.80;92.90;;;;;;5011813;28;20030;-58
2023/07/11 09:12:32;;;;;;;15.13;11.65;;;26.80;99.90;;;;;;5006139;28;20381;-58
2023/07/11 09:15:09;;;;;;;13.00;10.70;;;26.90;99.10;;;;;;5007414;28;20420;-58
2023/07/11 09:17:50;;;;;;;16.92;12.73;;;27.10;99.90;;;;;;5011975;28;20062;-58
2023/07/11 09:20:37;;;;;;;18.58;13.23;;;27.40;99.90;;;;;;5012551;28;20049;-58
2023/07/11 09:23:20;;;;;;;15.13;11.63;;;27.70;96.80;;;;;;5011795;28;20041;-59
2023/07/11 09:25:47;;;;;;;14.82;11.02;;;27.80;85.80;;;;;;5010841;28;20037;-58
2023/07/11 09:28:23;;;;;;;15.30;12.80;;;27.70;71.60;;;;;;5011221;28;20769;-59
2023/07/11 09:30:50;;;;;;;14.55;13.05;;;27.70;67.40;;;;;;5011023;28;20484;-58
2023/07/11 09:33:22;;;;;;;14.63;13.13;;;27.50;44.50;;;;;;5004824;28;20042;-59
2023/07/11 09:35:50;;;;;;;16.90;15.27;;;27.50;37.40;;;;;;5003796;28;20049;-59
2023/07/11 09:38:31;;;;;;;21.00;19.00;;;27.80;42.90;;;;;;5015290;28;20099;-59
2023/07/11 09:41:08;;;;;;;24.83;22.33;;;27.80;24.90;;;;;;5008305;28;20476;-59
2023/07/11 09:43:34;;;;;;;21.88;19.70;;;28.00;38.90;;;;;;5004086;28;20050;-59
2023/07/11 09:45:59;;;;;;;25.75;22.95;;;28.00;24.30;;;;;;5006108;28;20219;-59
2023/07/11 09:48:36;;;;;;;19.70;17.80;;;28.20;26.40;;;;;;5010365;28;20038;-59
2023/07/11 09:51:05;;;;;;;22.67;20.65;;;28.10;6.60;;;;;;5011603;28;20041;-58
2023/07/11 09:53:32;;;;;;;23.52;21.63;;;28.90;1.00;;;;;;5008368;28;20057;-59
2023/07/11 09:56:00;;;;;;;39.17;35.83;;;27.90;1.00;;;;;;5002132;28;20092;-59
2023/07/11 09:58:32;;;;;;;42.58;39.20;;;27.90;1.00;;;;;;5006555;28;20046;-58
2023/07/11 10:01:06;;;;;;;46.03;42.50;;;28.00;1.00;;;;;;5011179;28;20042;-58
2023/07/11 10:03:35;;;;;;;27.27;25.17;;;28.00;1.00;;;;;;5006637;28;20038;-59
2023/07/11 10:06:02;;;;;;;7.47;3.70;;;27.80;1.00;;;;;;5004198;28;20124;-58
2023/07/11 10:08:33;;;;;;;13.73;2.85;;;27.70;1.00;;;;;;5011363;28;20057;-59
2023/07/11 10:11:04;;;;;;;9.13;2.58;;;27.50;1.00;;;;;;5004971;28;20121;-58
2023/07/11 10:13:30;;;;;;;6.40;2.50;;;27.30;1.00;;;;;;5008525;28;20053;-59
2023/07/11 10:15:58;;;;;;;8.65;2.83;;;27.20;1.00;;;;;;5005860;28;20446;-59
2023/07/11 10:18:26;;;;;;;5.03;2.50;;;27.10;1.00;;;;;;5010769;28;20042;-58
2023/07/11 10:21:07;;;;;;;8.35;2.80;;;27.00;1.00;;;;;;5011202;28;20509;-58
2023/07/11 10:23:35;;;;;;;9.80;2.40;;;26.80;1.00;;;;;;5009754;28;20153;-58
2023/07/11 10:26:20;;;;;;;11.38;2.80;;;26.80;1.00;;;;;;5011388;28;20046;-58
2023/07/11 10:29:00;;;;;;;8.57;2.70;;;26.70;1.00;;;;;;5016872;28;20037;-58
2023/07/11 10:31:35;;;;;;;9.10;2.70;;;26.70;1.00;;;;;;5008403;28;20034;-58
2023/07/11 10:34:14;;;;;;;5.45;2.70;;;26.70;1.00;;;;;;5001848;28;20042;-59
2023/07/11 10:36:51;;;;;;;9.73;2.58;;;26.60;1.00;;;;;;5007489;28;20029;-58
2023/07/11 10:39:28;;;;;;;10.45;3.17;;;26.60;1.00;;;;;;5003193;28;20054;-58
2023/07/11 10:42:31;;;;;;;5.80;2.58;;;26.40;1.00;;;;;;5005644;28;20457;-58
2023/07/11 10:45:19;;;;;;;5.90;2.88;;;26.30;1.00;;;;;;5006887;28;20552;-58
2023/07/11 10:48:04;;;;;;;6.57;2.78;;;26.50;1.00;;;;;;5008473;28;20053;-59
2023/07/11 10:50:39;;;;;;;7.30;2.58;;;26.70;1.00;;;;;;5010072;28;20041;-58
2023/07/11 10:53:24;;;;;;;13.63;3.15;;;26.80;1.00;;;;;;5009215;28;20045;-58
2023/07/11 10:55:58;;;;;;;7.03;2.50;;;26.70;1.00;;;;;;5009012;28;20042;-58
2023/07/11 10:58:24;;;;;;;5.95;2.40;;;26.50;1.00;;;;;;5010883;28;20034;-58
2023/07/11 11:01:17;;;;;;;5.60;2.83;;;26.20;1.00;;;;;;5007581;28;20038;-58
2023/07/11 11:03:46;;;;;;;8.13;2.58;;;26.30;1.00;;;;;;5001595;28;20073;-58
2023/07/11 11:06:31;;;;;;;6.68;2.35;;;26.50;1.00;;;;;;5009619;28;20033;-58
2023/07/11 11:09:04;;;;;;;7.05;2.10;;;26.50;1.00;;;;;;5003485;28;20437;-58
2023/07/11 11:11:42;;;;;;;6.25;2.28;;;26.40;1.00;;;;;;5006945;28;20092;-58
2023/07/11 11:14:30;;;;;;;4.80;2.25;;;26.40;1.00;;;;;;5006996;28;20045;-58
2023/07/11 11:17:06;;;;;;;2.92;1.77;;;26.40;1.00;;;;;;4999526;28;20046;-59
2023/07/11 11:19:59;;;;;;;4.47;2.05;;;26.40;1.00;;;;;;5016541;28;20168;-58
2023/07/11 11:22:46;;;;;;;5.10;2.20;;;26.30;1.00;;;;;;5007378;28;20038;-58
2023/07/11 11:25:26;;;;;;;5.40;2.10;;;26.50;1.00;;;;;;5007440;28;20088;-58
2023/07/11 11:28:07;;;;;;;3.58;1.83;;;26.40;1.00;;;;;;4996975;28;20033;-58
2023/07/11 11:30:53;;;;;;;6.40;2.42;;;26.40;1.00;;;;;;5010525;28;20042;-58
2023/07/11 11:33:21;;;;;;;5.95;2.30;;;26.30;1.00;;;;;;5010053;28;20049;-58
2023/07/11 11:36:13;;;;;;;7.53;2.40;;;26.30;1.00;;;;;;5008020;28;20448;-58
2023/07/11 11:38:51;;;;;;;4.63;2.03;;;26.50;1.00;;;;;;5003891;28;20052;-58
2023/07/11 11:41:20;;;;;;;4.85;1.75;;;26.60;1.00;;;;;;5003954;28;20073;-58
2023/07/11 11:43:49;;;;;;;4.53;2.40;;;26.50;1.00;;;;;;5002504;28;20057;-59
2023/07/11 11:46:15;;;;;;;7.93;4.82;;;26.50;1.00;;;;;;5008584;28;20042;-58
2023/07/11 11:48:42;;;;;;;9.15;8.05;;;26.50;1.00;;;;;;5007981;28;20787;-58
2023/07/11 11:51:16;;;;;;;9.68;7.97;;;26.40;1.00;;;;;;4996450;28;20068;-59
2023/07/11 11:53:44;;;;;;;14.77;13.30;;;26.30;1.00;;;;;;4997278;28;20049;-58
2023/07/11 11:56:19;;;;;;;20.20;18.20;;;26.30;5.80;;;;;;5008984;28;20057;-59
2023/07/11 11:58:59;;;;;;;20.43;18.70;;;26.20;8.00;;;;;;5005666;28;20030;-58
2023/07/11 12:01:48;;;;;;;16.65;15.30;;;26.20;21.60;;;;;;5009215;28;20057;-58
2023/07/11 12:04:35;;;;;;;18.13;16.35;;;26.30;43.40;;;;;;5000751;28;20100;-58
2023/07/11 12:07:13;;;;;;;26.17;24.08;;;26.30;39.40;;;;;;5001346;28;20561;-58
2023/07/11 12:09:52;;;;;;;15.38;10.27;;;26.10;32.20;;;;;;5006991;28;20038;-59
2023/07/11 12:12:24;;;;;;;13.05;10.13;;;26.10;33.00;;;;;;5001974;28;20038;-58
2023/07/11 12:14:51;;;;;;;16.17;14.30;;;26.00;43.10;;;;;;5008910;28;20131;-58
2023/07/11 12:17:31;;;;;;;19.08;17.45;;;26.10;63.00;;;;;;5008367;28;20072;-58
2023/07/11 12:20:08;;;;;;;20.30;18.52;;;26.30;52.10;;;;;;5009699;28;20041;-59
2023/07/11 12:22:37;;;;;;;11.23;9.07;;;25.90;58.90;;;;;;5009460;28;20068;-59
2023/07/11 12:25:20;;;;;;;15.30;13.75;;;25.80;46.20;;;;;;5004417;28;20044;-58
2023/07/11 12:27:58;;;;;;;27.73;25.45;;;25.80;41.50;;;;;;5009661;28;20096;-58
2023/07/11 12:30:26;;;;;;;26.20;23.98;;;25.80;80.40;;;;;;5008530;28;20132;-58
2023/07/11 12:32:56;;;;;;;50.28;46.28;;;25.80;76.80;;;;;;5019802;28;20099;-58
2023/07/11 12:35:33;;;;;;;30.67;28.17;;;25.80;72.50;;;;;;4997683;28;20061;-58
2023/07/11 12:37:59;;;;;;;27.40;25.20;;;25.70;83.60;;;;;;5022006;28;20049;-58
2023/07/11 12:40:41;;;;;;;38.97;35.30;;;25.70;91.80;;;;;;5008033;28;20034;-58
2023/07/11 12:43:19;;;;;;;37.40;34.35;;;25.60;93.50;;;;;;5009217;28;20396;-59